Time;durP1;ratioP1;P1;durP2;ratioP2;P2;SDS_P1;SDS_P2;PMS_P1;PMS_P2;Temp;Humidity;BMP_temperature;BMP_pressure;BME280_temperature;BME280_humidity;BME280_pressure;Samples;Min_cycle;Max_cycle;Signal;HPM_P1;HPM_P2
2022/04/19 00:00:42;;;;;;;11.85;3.97;;;8.20;90.10;;;;;;5073392;28;20024;-53
2022/04/19 00:03:08;;;;;;;12.95;4.32;;;8.20;90.00;;;;;;5073404;28;20103;-44
2022/04/19 00:05:36;;;;;;;12.63;4.30;;;8.20;90.20;;;;;;5073309;28;20032;-44
2022/04/19 00:08:02;;;;;;;10.13;4.00;;;8.20;90.20;;;;;;5073172;28;20090;-48
2022/04/19 00:10:28;;;;;;;17.08;4.43;;;8.20;90.40;;;;;;5073399;28;20527;-49
2022/04/19 00:12:58;;;;;;;15.15;4.30;;;8.10;90.50;;;;;;5073301;28;20104;-52
2022/04/19 00:15:28;;;;;;;13.43;4.90;;;8.10;90.60;;;;;;5072558;28;20496;-46
2022/04/19 00:17:56;;;;;;;15.65;4.63;;;8.10;90.50;;;;;;5073095;28;20028;-46
2022/04/19 00:20:23;;;;;;;12.13;4.35;;;8.00;90.70;;;;;;5073012;28;20025;-47
2022/04/19 00:22:52;;;;;;;10.30;4.38;;;8.00;90.90;;;;;;5072795;28;20029;-51
2022/04/19 00:25:18;;;;;;;12.50;3.90;;;7.90;91.20;;;;;;5071575;28;20380;-47
2022/04/19 00:27:44;;;;;;;16.52;4.38;;;7.90;91.10;;;;;;5072997;28;20056;-51
2022/04/19 00:30:11;;;;;;;11.05;4.22;;;7.90;91.20;;;;;;5072500;28;20082;-47
2022/04/19 00:32:37;;;;;;;11.68;3.70;;;7.90;91.20;;;;;;5072568;28;20029;-46
2022/04/19 00:35:04;;;;;;;11.05;3.88;;;7.80;91.40;;;;;;5072557;28;20094;-47
2022/04/19 00:37:30;;;;;;;11.23;4.22;;;7.90;91.40;;;;;;5072384;28;20025;-48
2022/04/19 00:39:58;;;;;;;14.15;4.10;;;7.90;91.50;;;;;;5072782;28;20032;-49
2022/04/19 00:42:28;;;;;;;10.07;4.07;;;7.80;91.30;;;;;;5072666;28;20037;-54
2022/04/19 00:44:57;;;;;;;14.45;4.18;;;7.80;91.50;;;;;;5072311;28;20085;-49
2022/04/19 00:47:23;;;;;;;18.75;5.15;;;7.80;91.60;;;;;;5072505;28;20067;-44
2022/04/19 00:49:48;;;;;;;14.85;4.40;;;7.80;91.70;;;;;;5072366;28;20404;-48
2022/04/19 00:52:14;;;;;;;12.63;4.50;;;7.70;91.70;;;;;;5071083;28;20052;-50
2022/04/19 00:54:41;;;;;;;15.00;4.65;;;7.70;91.70;;;;;;5072275;28;20024;-50
2022/04/19 00:57:07;;;;;;;12.90;4.28;;;7.80;92.10;;;;;;5072414;28;20044;-49
2022/04/19 00:59:33;;;;;;;11.38;4.30;;;7.70;92.10;;;;;;5071283;28;20031;-48
2022/04/19 01:02:03;;;;;;;12.50;4.13;;;7.70;92.20;;;;;;5072120;28;20056;-48
2022/04/19 01:04:30;;;;;;;12.85;4.43;;;7.70;92.10;;;;;;5072063;28;20034;-52
2022/04/19 01:06:57;;;;;;;11.15;4.45;;;7.70;92.20;;;;;;5071994;28;20360;-53
2022/04/19 01:09:23;;;;;;;19.02;4.72;;;7.60;92.20;;;;;;5072292;28;20025;-49
2022/04/19 01:14:37;;;;;;;13.80;4.40;;;7.60;92.40;;;;;;5072015;28;20622;-43
2022/04/19 01:17:04;;;;;;;13.95;5.10;;;7.60;92.40;;;;;;5071776;28;20060;-48
2022/04/19 01:19:31;;;;;;;12.75;3.88;;;7.50;92.40;;;;;;5071874;28;20033;-49
2022/04/19 01:21:57;;;;;;;8.80;3.60;;;7.50;92.40;;;;;;5071987;28;20033;-52
2022/04/19 01:24:23;;;;;;;11.23;4.40;;;7.50;92.30;;;;;;5071727;28;20090;-46
2022/04/19 01:26:53;;;;;;;11.13;4.45;;;7.50;92.30;;;;;;5071548;28;20024;-52
2022/04/19 01:29:19;;;;;;;14.50;4.72;;;7.50;92.40;;;;;;5071729;28;20111;-48
2022/04/19 01:31:45;;;;;;;16.33;4.53;;;7.40;92.60;;;;;;5071679;28;20048;-45
2022/04/19 01:34:12;;;;;;;14.80;4.65;;;7.50;92.80;;;;;;5071889;28;20059;-53
2022/04/19 01:36:38;;;;;;;13.95;4.57;;;7.40;92.70;;;;;;5071607;28;20028;-46
2022/04/19 01:39:08;;;;;;;14.32;4.68;;;7.50;92.90;;;;;;5071348;28;20024;-53
2022/04/19 01:41:36;;;;;;;16.00;4.72;;;7.40;92.90;;;;;;5071494;28;20115;-47
2022/04/19 01:44:04;;;;;;;15.60;5.10;;;7.40;92.90;;;;;;5071498;28;20082;-50
2022/04/19 01:46:31;;;;;;;17.98;4.47;;;7.40;92.90;;;;;;5071571;28;20023;-45
2022/04/19 01:48:57;;;;;;;10.90;4.45;;;7.30;92.80;;;;;;5070593;28;20028;-43
2022/04/19 01:51:24;;;;;;;16.00;4.13;;;7.30;92.90;;;;;;5071105;28;20438;-54
2022/04/19 01:53:51;;;;;;;13.45;4.65;;;7.30;93.00;;;;;;5071139;28;20025;-53
2022/04/19 01:56:17;;;;;;;10.75;4.28;;;7.30;93.10;;;;;;5071199;28;20495;-49
2022/04/19 01:58:42;;;;;;;15.38;5.10;;;7.30;93.20;;;;;;5071157;28;20032;-52
2022/04/19 02:01:08;;;;;;;11.23;4.30;;;7.20;93.30;;;;;;5071150;28;20020;-48
2022/04/19 02:03:35;;;;;;;9.95;4.72;;;7.20;93.20;;;;;;5071236;28;20052;-50
2022/04/19 02:06:01;;;;;;;6.13;3.60;;;7.20;93.20;;;;;;5070854;28;20388;-53
2022/04/19 02:08:29;;;;;;;9.38;4.18;;;7.20;93.10;;;;;;5071047;28;20025;-54
2022/04/19 02:10:54;;;;;;;12.93;4.43;;;7.10;93.20;;;;;;5070906;28;20035;-49
2022/04/19 02:13:20;;;;;;;11.70;4.80;;;7.10;93.30;;;;;;5071072;28;20024;-48
2022/04/19 02:15:46;;;;;;;12.75;4.05;;;7.10;93.30;;;;;;5070887;28;20063;-50
2022/04/19 02:18:12;;;;;;;11.73;4.28;;;7.10;93.20;;;;;;5071137;28;20024;-49
2022/04/19 02:20:39;;;;;;;14.93;4.20;;;7.00;93.30;;;;;;5070740;28;20028;-44
2022/04/19 02:23:05;;;;;;;10.20;4.30;;;7.00;93.40;;;;;;5071123;28;20094;-47
2022/04/19 02:25:31;;;;;;;10.15;4.10;;;7.00;93.40;;;;;;5070983;28;20044;-47
2022/04/19 02:27:57;;;;;;;11.15;4.00;;;7.00;93.50;;;;;;5070940;28;20025;-46
2022/04/19 02:30:22;;;;;;;12.57;4.18;;;6.90;93.50;;;;;;5070987;28;20017;-51
2022/04/19 02:32:49;;;;;;;11.38;3.88;;;6.90;93.40;;;;;;5071345;28;20032;-49
2022/04/19 02:35:20;;;;;;;11.32;3.83;;;6.80;93.50;;;;;;5070721;28;20021;-47
2022/04/19 02:37:51;;;;;;;10.05;4.07;;;6.80;93.60;;;;;;5070972;28;20411;-47
2022/04/19 02:40:21;;;;;;;12.95;4.65;;;6.80;93.90;;;;;;5070925;28;20383;-51
2022/04/19 02:42:50;;;;;;;13.52;4.00;;;6.80;93.70;;;;;;5070930;28;20304;-44
2022/04/19 02:45:19;;;;;;;12.80;4.60;;;6.80;93.80;;;;;;5070854;28;20498;-45
2022/04/19 02:47:45;;;;;;;12.88;4.15;;;6.80;93.60;;;;;;5070790;28;20498;-45
2022/04/19 02:50:11;;;;;;;12.73;4.43;;;6.80;93.70;;;;;;5070725;28;20025;-46
2022/04/19 02:52:36;;;;;;;10.52;4.05;;;6.80;93.70;;;;;;5070879;28;20383;-46
2022/04/19 02:55:02;;;;;;;9.65;3.85;;;6.80;93.60;;;;;;5070627;28;20025;-44
2022/04/19 02:57:28;;;;;;;10.43;4.07;;;6.70;93.60;;;;;;5070898;28;20441;-45
2022/04/19 02:59:54;;;;;;;9.18;3.72;;;6.70;93.60;;;;;;5070619;28;20024;-44
2022/04/19 03:02:20;;;;;;;14.20;3.92;;;6.70;93.60;;;;;;5070293;28;20090;-44
2022/04/19 03:04:46;;;;;;;9.60;3.78;;;6.70;93.80;;;;;;5070468;28;20025;-43
2022/04/19 03:07:15;;;;;;;13.68;4.25;;;6.70;93.70;;;;;;5070659;28;20032;-46
2022/04/19 03:09:42;;;;;;;9.40;3.70;;;6.70;93.70;;;;;;5070672;28;20463;-43
2022/04/19 03:12:10;;;;;;;10.95;4.18;;;6.70;93.60;;;;;;5070507;28;20032;-45
2022/04/19 03:14:36;;;;;;;13.80;4.60;;;6.70;93.80;;;;;;5069515;28;20111;-43
2022/04/19 03:17:03;;;;;;;8.27;3.30;;;6.70;93.80;;;;;;5070093;28;20053;-43
2022/04/19 03:19:29;;;;;;;12.07;4.15;;;6.70;93.70;;;;;;5070579;28;20073;-43
2022/04/19 03:21:54;;;;;;;11.13;3.97;;;6.70;93.70;;;;;;5070433;28;20036;-43
2022/04/19 03:29:48;;;;;;;10.77;4.28;;;6.70;93.60;;;;;;5074238;28;20082;-46
2022/04/19 03:32:15;;;;;;;11.25;3.90;;;6.70;93.60;;;;;;5073587;28;20021;-46
2022/04/19 03:34:41;;;;;;;10.73;3.92;;;6.70;93.60;;;;;;5073862;28;20020;-47
2022/04/19 03:37:06;;;;;;;11.18;4.10;;;6.70;93.70;;;;;;5073794;28;20043;-50
2022/04/19 03:39:32;;;;;;;10.25;4.28;;;6.60;93.70;;;;;;5073783;28;20475;-46
2022/04/19 03:41:58;;;;;;;13.63;4.90;;;6.70;93.80;;;;;;5073720;28;20024;-47
2022/04/19 03:44:27;;;;;;;11.23;4.18;;;6.70;93.70;;;;;;5073433;28;20360;-46
2022/04/19 03:47:08;;;;;;;9.73;4.30;;;6.70;93.80;;;;;;5073456;28;20036;-43
2022/04/19 03:49:35;;;;;;;9.70;4.18;;;6.70;93.90;;;;;;5073722;28;20130;-43
2022/04/19 03:52:01;;;;;;;10.40;4.00;;;6.70;93.70;;;;;;5073665;28;20024;-49
2022/04/19 03:54:27;;;;;;;12.25;3.92;;;6.60;93.70;;;;;;5073537;28;20048;-46
2022/04/19 03:56:53;;;;;;;11.02;4.32;;;6.60;93.70;;;;;;5073444;28;20076;-43
2022/04/19 03:59:18;;;;;;;8.73;3.90;;;6.60;93.90;;;;;;5073223;28;20102;-43
2022/04/19 04:01:44;;;;;;;9.25;3.65;;;6.60;94.10;;;;;;5072627;28;20032;-44
2022/04/19 04:04:11;;;;;;;13.18;3.88;;;6.60;93.90;;;;;;5073250;28;20130;-46
2022/04/19 04:06:37;;;;;;;10.65;3.55;;;6.60;94.00;;;;;;5073486;28;20119;-44
2022/04/19 04:09:03;;;;;;;7.80;4.25;;;6.60;93.80;;;;;;5073258;28;20025;-47
2022/04/19 04:11:29;;;;;;;10.90;4.45;;;6.50;94.00;;;;;;5073039;28;20033;-43
2022/04/19 04:13:55;;;;;;;7.95;4.03;;;6.60;94.10;;;;;;5073143;28;20385;-47
2022/04/19 04:16:21;;;;;;;7.78;4.05;;;6.60;94.00;;;;;;5072904;28;20052;-43
2022/04/19 04:18:47;;;;;;;12.63;4.30;;;6.60;94.00;;;;;;5073255;28;20024;-45
2022/04/19 04:21:12;;;;;;;8.35;4.03;;;6.60;93.90;;;;;;5072871;28;20039;-46
2022/04/19 04:23:38;;;;;;;11.40;4.30;;;6.60;94.00;;;;;;5073145;28;20119;-52
2022/04/19 04:26:04;;;;;;;9.98;4.00;;;6.60;94.10;;;;;;5073335;28;20029;-46
2022/04/19 04:28:29;;;;;;;9.55;4.13;;;6.60;94.00;;;;;;5072864;28;20025;-46
2022/04/19 04:30:55;;;;;;;8.80;4.22;;;6.60;94.00;;;;;;5072890;28;20102;-46
2022/04/19 04:33:21;;;;;;;13.18;4.45;;;6.60;93.90;;;;;;5072516;28;20025;-44
2022/04/19 04:35:47;;;;;;;12.93;4.25;;;6.50;94.00;;;;;;5058804;28;20491;-50
2022/04/19 04:38:14;;;;;;;10.73;4.43;;;6.50;94.10;;;;;;5072926;28;20107;-49
2022/04/19 04:40:39;;;;;;;10.48;4.07;;;6.50;93.80;;;;;;5071386;28;20031;-50
2022/04/19 04:43:05;;;;;;;10.95;3.65;;;6.50;94.00;;;;;;5072470;28;20119;-47
2022/04/19 04:45:31;;;;;;;11.20;4.43;;;6.40;93.50;;;;;;5072545;28;20029;-44
2022/04/19 04:50:40;;;;;;;9.75;4.28;;;6.30;93.80;;;;;;5072383;28;20020;-49
2022/04/19 04:53:06;;;;;;;10.85;4.32;;;6.20;94.00;;;;;;5072338;28;20032;-44
2022/04/19 04:55:32;;;;;;;7.70;3.90;;;6.20;94.20;;;;;;5072211;28;20071;-45
2022/04/19 04:58:01;;;;;;;12.30;3.92;;;6.20;94.30;;;;;;5072155;28;20029;-43
2022/04/19 05:00:27;;;;;;;9.25;4.38;;;6.20;94.30;;;;;;5072088;28;20074;-47
2022/04/19 05:02:52;;;;;;;11.25;4.38;;;6.20;94.30;;;;;;5072078;28;20036;-45
2022/04/19 05:05:18;;;;;;;11.77;4.00;;;6.20;94.50;;;;;;5071934;28;20103;-49
2022/04/19 05:07:43;;;;;;;10.77;4.97;;;6.20;94.40;;;;;;5072225;28;20125;-50
2022/04/19 05:10:09;;;;;;;10.50;4.32;;;6.20;94.40;;;;;;5072134;28;20043;-51
2022/04/19 05:12:35;;;;;;;8.43;4.57;;;6.20;94.40;;;;;;5072048;28;20040;-46
2022/04/19 05:15:02;;;;;;;7.65;3.92;;;6.20;94.30;;;;;;5069222;28;20498;-43
2022/04/19 05:17:29;;;;;;;10.07;4.20;;;6.20;94.50;;;;;;5070883;28;20132;-45
2022/04/19 05:19:55;;;;;;;9.15;3.90;;;6.20;94.60;;;;;;5071439;28;20471;-43
2022/04/19 05:22:22;;;;;;;9.95;4.30;;;6.20;94.50;;;;;;5070145;28;20023;-45
2022/04/19 05:24:47;;;;;;;8.85;3.97;;;6.20;94.50;;;;;;5069632;28;20033;-50
2022/04/19 05:27:13;;;;;;;10.73;4.03;;;6.20;94.50;;;;;;5071827;28;20399;-44
2022/04/19 05:29:39;;;;;;;10.43;4.20;;;6.30;94.50;;;;;;5071456;28;20368;-46
2022/04/19 05:32:05;;;;;;;8.05;3.80;;;6.40;94.50;;;;;;5071716;28;20062;-42
2022/04/19 05:34:31;;;;;;;7.15;3.90;;;6.50;94.50;;;;;;5067874;28;20021;-51
2022/04/19 05:36:57;;;;;;;10.10;4.10;;;6.60;94.40;;;;;;5071432;28;20047;-51
2022/04/19 05:39:23;;;;;;;8.90;3.88;;;6.70;94.30;;;;;;5070718;28;20032;-45
2022/04/19 05:41:49;;;;;;;10.77;4.18;;;6.90;93.70;;;;;;5071586;28;20021;-46
2022/04/19 05:44:15;;;;;;;11.25;3.97;;;7.00;93.90;;;;;;5071682;28;20104;-44
2022/04/19 05:46:40;;;;;;;8.63;3.45;;;7.20;93.60;;;;;;5071119;28;20060;-47
2022/04/19 05:49:06;;;;;;;10.27;4.20;;;7.40;93.10;;;;;;5071349;28;20024;-44
2022/04/19 05:51:33;;;;;;;13.02;4.07;;;7.60;92.90;;;;;;5070443;28;20032;-46
2022/04/19 05:53:59;;;;;;;10.48;3.85;;;7.80;92.60;;;;;;5071249;28;20017;-49
2022/04/19 05:56:24;;;;;;;7.20;3.33;;;8.00;92.30;;;;;;5070456;28;20041;-45
2022/04/19 05:58:50;;;;;;;8.20;3.60;;;8.20;91.80;;;;;;5070732;28;20056;-48
2022/04/19 06:01:15;;;;;;;10.13;3.92;;;8.40;91.20;;;;;;5070407;28;20024;-48
2022/04/19 06:06:25;;;;;;;6.22;2.90;;;8.80;90.00;;;;;;5069324;28;20454;-45
2022/04/19 06:08:51;;;;;;;7.93;3.47;;;9.00;90.00;;;;;;5071248;28;20021;-45
2022/04/19 06:11:17;;;;;;;7.60;3.42;;;9.10;89.00;;;;;;5066879;28;20107;-44
2022/04/19 06:13:43;;;;;;;9.95;3.95;;;9.10;88.80;;;;;;5066574;28;20021;-45
2022/04/19 06:16:09;;;;;;;7.90;3.50;;;9.20;88.90;;;;;;5068835;28;20047;-43
2022/04/19 06:18:35;;;;;;;8.63;3.53;;;9.40;88.30;;;;;;5070476;28;20033;-51
2022/04/19 06:21:03;;;;;;;7.45;3.38;;;9.60;88.90;;;;;;5070949;28;20028;-53
2022/04/19 06:23:29;;;;;;;9.55;3.65;;;10.00;85.40;;;;;;5069696;28;20020;-51
2022/04/19 06:25:54;;;;;;;8.15;3.28;;;10.00;84.60;;;;;;5070998;28;20391;-45
2022/04/19 06:28:20;;;;;;;14.15;3.60;;;10.20;84.80;;;;;;5070412;28;20468;-45
2022/04/19 06:30:46;;;;;;;8.13;3.10;;;10.30;83.90;;;;;;5069653;28;20109;-50
2022/04/19 06:33:12;;;;;;;7.28;2.70;;;10.70;83.30;;;;;;5069765;28;20557;-45
2022/04/19 06:35:37;;;;;;;9.05;2.80;;;10.90;80.80;;;;;;5069842;28;20033;-52
2022/04/19 06:38:03;;;;;;;11.70;3.55;;;11.10;80.40;;;;;;5070378;28;20029;-53
2022/04/19 06:40:29;;;;;;;10.57;3.28;;;11.30;80.70;;;;;;5070053;28;20024;-45
2022/04/19 06:42:57;;;;;;;6.28;2.88;;;11.50;79.00;;;;;;5070158;28;20036;-57
2022/04/19 06:45:23;;;;;;;10.90;3.10;;;12.30;78.00;;;;;;5070520;28;20029;-48
2022/04/19 06:47:59;;;;;;;9.40;3.28;;;13.00;72.70;;;;;;5069536;28;20017;-47
2022/04/19 06:50:25;;;;;;;6.30;2.75;;;13.60;69.80;;;;;;5070758;28;20444;-48
2022/04/19 06:52:52;;;;;;;8.68;2.95;;;13.80;70.30;;;;;;5070844;28;20062;-46
2022/04/19 06:55:19;;;;;;;8.65;3.00;;;14.30;69.00;;;;;;5070782;28;20028;-51
2022/04/19 06:57:48;;;;;;;6.82;2.53;;;14.40;67.20;;;;;;5067248;28;20021;-51
2022/04/19 07:00:15;;;;;;;7.32;2.80;;;15.00;67.40;;;;;;5074225;28;20028;-49
2022/04/19 07:02:41;;;;;;;5.57;2.45;;;15.40;64.70;;;;;;5074393;28;20028;-46
2022/04/19 07:05:07;;;;;;;6.55;2.50;;;15.80;63.50;;;;;;5074563;28;20124;-47
2022/04/19 07:07:33;;;;;;;5.78;2.35;;;16.10;61.60;;;;;;5074265;28;20091;-51
2022/04/19 07:09:59;;;;;;;5.65;2.58;;;16.00;61.70;;;;;;5074262;28;20032;-44
2022/04/19 07:12:25;;;;;;;5.30;2.53;;;16.10;63.90;;;;;;5074333;28;20025;-46
2022/04/19 07:14:50;;;;;;;7.63;2.63;;;15.70;61.80;;;;;;5074248;28;20037;-48
2022/04/19 07:17:16;;;;;;;8.20;2.72;;;15.30;64.40;;;;;;5071888;28;20048;-46
2022/04/19 07:28:04;;;;;;;7.35;3.00;;;14.20;67.30;;;;;;5074149;28;20031;-44
2022/04/19 07:30:31;;;;;;;8.52;3.53;;;14.00;68.50;;;;;;5074160;28;20024;-45
2022/04/19 07:32:56;;;;;;;7.75;3.20;;;13.90;69.10;;;;;;5072526;28;20030;-46
2022/04/19 07:35:22;;;;;;;6.50;2.45;;;13.90;70.30;;;;;;5074019;28;20027;-57
2022/04/19 07:37:48;;;;;;;6.50;2.80;;;14.10;71.30;;;;;;5073611;28;20429;-46
2022/04/19 07:40:14;;;;;;;6.53;2.60;;;14.10;70.90;;;;;;5072895;28;20034;-43
2022/04/19 07:42:39;;;;;;;9.68;3.20;;;14.30;71.30;;;;;;5076528;28;20032;-46
2022/04/19 07:45:06;;;;;;;5.85;2.72;;;14.10;70.40;;;;;;5074311;28;20052;-43
2022/04/19 07:47:35;;;;;;;7.78;3.50;;;14.30;71.30;;;;;;5073750;28;20024;-46
2022/04/19 07:50:01;;;;;;;6.30;2.90;;;14.40;69.50;;;;;;5073709;28;20020;-45
2022/04/19 07:52:27;;;;;;;7.72;3.70;;;14.60;71.10;;;;;;5073321;28;20157;-47
2022/04/19 07:54:52;;;;;;;6.72;3.40;;;14.50;69.90;;;;;;5073498;28;20477;-46
2022/04/19 07:57:21;;;;;;;7.85;3.30;;;14.00;71.60;;;;;;5073728;28;20037;-43
2022/04/19 07:59:47;;;;;;;9.60;3.45;;;13.90;71.20;;;;;;5072695;28;20028;-54
2022/04/19 08:02:14;;;;;;;7.10;2.88;;;14.00;72.00;;;;;;5071847;28;20390;-54
2022/04/19 08:04:40;;;;;;;8.57;3.67;;;14.00;71.80;;;;;;5073362;28;20099;-43
2022/04/19 08:07:06;;;;;;;10.45;3.28;;;14.20;69.70;;;;;;5071313;28;20020;-44
2022/04/19 08:09:32;;;;;;;8.77;3.42;;;14.50;70.90;;;;;;5068742;28;20024;-45
2022/04/19 08:11:58;;;;;;;8.68;3.35;;;14.80;70.40;;;;;;5072977;28;20020;-44
2022/04/19 08:14:24;;;;;;;12.88;3.80;;;14.80;70.10;;;;;;5073263;28;20104;-46
2022/04/19 08:16:49;;;;;;;11.57;3.95;;;15.30;70.00;;;;;;5072848;28;20070;-50
2022/04/19 08:19:15;;;;;;;10.73;4.07;;;15.50;65.80;;;;;;5070359;28;20028;-43
2022/04/19 08:21:40;;;;;;;8.10;3.47;;;15.90;66.10;;;;;;5072988;28;20424;-48
2022/04/19 08:24:06;;;;;;;10.38;4.30;;;16.00;64.60;;;;;;5072615;28;20017;-46
2022/04/19 08:26:32;;;;;;;9.85;3.97;;;16.30;64.30;;;;;;5072458;28;20360;-46
2022/04/19 08:28:58;;;;;;;8.30;4.15;;;16.80;65.50;;;;;;5071685;28;20180;-46
2022/04/19 08:31:24;;;;;;;11.80;4.57;;;17.10;63.00;;;;;;5069022;28;20441;-46
2022/04/19 08:33:49;;;;;;;8.70;4.50;;;17.30;61.40;;;;;;5071761;28;20028;-46
2022/04/19 08:36:15;;;;;;;9.32;4.43;;;17.10;62.10;;;;;;5072530;28;20037;-54
2022/04/19 08:38:41;;;;;;;11.73;4.55;;;17.30;61.50;;;;;;5072617;28;20033;-55
2022/04/19 08:41:07;;;;;;;10.95;4.80;;;17.30;60.20;;;;;;5072786;28;20086;-48
2022/04/19 08:43:34;;;;;;;11.05;5.25;;;17.30;60.70;;;;;;5072756;28;20024;-50
2022/04/19 08:46:01;;;;;;;12.38;5.22;;;17.40;60.40;;;;;;5072499;28;20475;-47
2022/04/19 08:48:27;;;;;;;8.82;4.88;;;17.60;62.10;;;;;;5072608;28;20114;-47
2022/04/19 08:50:55;;;;;;;13.88;5.65;;;17.80;59.80;;;;;;5072617;28;20074;-48
2022/04/19 08:58:50;;;;;;;9.40;4.68;;;18.10;60.20;;;;;;5072275;28;20071;-48
2022/04/19 09:01:16;;;;;;;13.82;5.43;;;18.90;58.70;;;;;;5072190;28;20056;-53
2022/04/19 09:03:42;;;;;;;12.48;5.60;;;19.30;56.60;;;;;;5071281;28;20024;-43
2022/04/19 09:06:08;;;;;;;9.43;4.88;;;19.70;56.00;;;;;;5071719;28;20101;-43
2022/04/19 09:08:34;;;;;;;14.38;5.40;;;20.00;53.40;;;;;;5072240;28;20020;-49
2022/04/19 09:11:08;;;;;;;10.93;4.75;;;20.30;52.60;;;;;;5071839;28;20056;-46
2022/04/19 09:13:34;;;;;;;10.82;4.85;;;20.70;54.10;;;;;;5070777;28;20025;-54
2022/04/19 09:16:05;;;;;;;9.70;4.93;;;20.90;51.60;;;;;;5071607;28;20127;-45
2022/04/19 09:18:34;;;;;;;10.80;5.53;;;21.30;48.40;;;;;;5071759;28;20024;-43
2022/04/19 09:21:01;;;;;;;9.50;5.68;;;20.80;46.70;;;;;;5071166;28;20025;-52
2022/04/19 09:23:31;;;;;;;8.77;6.07;;;20.30;48.00;;;;;;5070436;28;20033;-46
2022/04/19 09:26:05;;;;;;;10.93;5.40;;;19.80;51.10;;;;;;5071689;28;20024;-47
2022/04/19 09:28:34;;;;;;;10.32;5.68;;;20.20;49.30;;;;;;5071741;28;20073;-53
2022/04/19 09:31:01;;;;;;;10.40;5.95;;;19.70;48.00;;;;;;5071806;28;20020;-57
2022/04/19 09:33:30;;;;;;;11.93;5.85;;;19.30;50.80;;;;;;5071521;28;20028;-57
2022/04/19 09:36:04;;;;;;;13.13;5.65;;;19.60;51.90;;;;;;5071659;28;20071;-47
2022/04/19 09:38:42;;;;;;;10.25;4.85;;;19.80;48.40;;;;;;5071533;28;20050;-44
2022/04/19 09:41:15;;;;;;;8.05;4.28;;;19.70;50.60;;;;;;5070533;28;20020;-40
2022/04/19 09:43:40;;;;;;;7.18;4.22;;;19.40;48.80;;;;;;5069798;28;20017;-40
2022/04/19 09:46:07;;;;;;;9.30;3.72;;;19.40;49.70;;;;;;5070666;28;20645;-50
2022/04/19 09:48:35;;;;;;;9.27;4.38;;;19.70;49.00;;;;;;5071377;28;20023;-41
2022/04/19 09:51:04;;;;;;;10.60;4.63;;;20.20;52.40;;;;;;5070662;28;20017;-48
2022/04/19 09:53:42;;;;;;;11.05;4.55;;;19.80;48.20;;;;;;5067950;28;20029;-46
2022/04/19 09:56:10;;;;;;;7.15;3.63;;;19.70;49.90;;;;;;5071243;28;20123;-50
2022/04/19 09:58:38;;;;;;;10.80;4.25;;;19.30;50.00;;;;;;5071545;28;20035;-51
2022/04/19 10:01:05;;;;;;;9.18;3.80;;;18.90;52.70;;;;;;5071170;28;20086;-45
2022/04/19 10:09:04;;;;;;;10.05;4.05;;;17.50;54.40;;;;;;5070396;28;20075;-46
2022/04/19 10:11:30;;;;;;;6.57;4.03;;;17.20;56.10;;;;;;5070979;28;20104;-44
2022/04/19 10:13:57;;;;;;;7.70;4.03;;;16.90;56.60;;;;;;5071134;28;20099;-44
2022/04/19 10:16:23;;;;;;;9.95;4.05;;;16.70;57.70;;;;;;5071006;28;20044;-50
2022/04/19 10:18:49;;;;;;;8.32;3.90;;;16.50;58.30;;;;;;5071236;28;20479;-49
2022/04/19 10:21:18;;;;;;;8.30;4.55;;;16.40;60.30;;;;;;5071131;28;20467;-49
2022/04/19 10:23:47;;;;;;;9.68;5.03;;;16.20;59.80;;;;;;5070598;28;20029;-51
2022/04/19 10:26:24;;;;;;;8.27;4.47;;;16.10;60.20;;;;;;5067679;28;20044;-44
2022/04/19 10:28:51;;;;;;;9.70;4.30;;;16.00;61.50;;;;;;5070897;28;20032;-49
2022/04/19 10:31:30;;;;;;;8.40;4.45;;;16.20;61.70;;;;;;5068650;28;20028;-53
2022/04/19 10:34:06;;;;;;;7.90;4.85;;;16.30;61.50;;;;;;5074825;28;20048;-48
2022/04/19 10:36:39;;;;;;;8.63;4.85;;;16.40;60.50;;;;;;5075011;28;20499;-48
2022/04/19 10:39:14;;;;;;;7.70;4.82;;;16.60;60.00;;;;;;5074572;28;20467;-42
2022/04/19 10:41:57;;;;;;;7.55;4.53;;;16.70;60.10;;;;;;5074814;28;20078;-49
2022/04/19 10:44:32;;;;;;;8.50;4.85;;;17.00;58.50;;;;;;5072195;28;20028;-48
2022/04/19 10:47:05;;;;;;;8.82;4.90;;;17.00;57.40;;;;;;5073925;28;20086;-47
2022/04/19 10:49:31;;;;;;;8.43;4.82;;;17.00;59.00;;;;;;5072897;28;20066;-42
2022/04/19 10:52:00;;;;;;;11.18;5.43;;;17.20;59.30;;;;;;5074598;28;20024;-45
2022/04/19 10:55:03;;;;;;;10.52;5.43;;;17.20;58.00;;;;;;5074871;28;20043;-50
2022/04/19 10:58:21;;;;;;;10.45;5.63;;;17.00;57.30;;;;;;5074623;28;20490;-45
2022/04/19 11:00:48;;;;;;;11.65;5.97;;;17.30;59.10;;;;;;5032291;28;20033;-45
2022/04/19 11:03:18;;;;;;;10.70;5.60;;;17.20;57.20;;;;;;5067979;28;20395;-46
2022/04/19 11:05:44;;;;;;;9.57;5.72;;;16.80;59.00;;;;;;5074306;28;20391;-44
2022/04/19 11:08:21;;;;;;;11.30;6.28;;;17.00;59.00;;;;;;5074470;28;20032;-44
2022/04/19 11:10:49;;;;;;;10.85;5.75;;;16.70;59.60;;;;;;5074373;28;20056;-45
2022/04/19 11:13:14;;;;;;;10.55;6.15;;;16.60;59.50;;;;;;5074381;28;20013;-48
2022/04/19 11:15:42;;;;;;;9.13;6.20;;;16.50;59.60;;;;;;5074303;28;20044;-42
2022/04/19 11:18:27;;;;;;;11.50;6.35;;;16.40;60.90;;;;;;5074385;28;20033;-42
2022/04/19 11:20:58;;;;;;;9.30;5.65;;;16.30;60.40;;;;;;5074201;28;20052;-50
2022/04/19 11:23:25;;;;;;;10.75;5.55;;;16.30;61.70;;;;;;5074318;28;20074;-43
2022/04/19 11:25:52;;;;;;;8.20;5.57;;;16.20;62.40;;;;;;5072798;28;20023;-43
2022/04/19 11:28:27;;;;;;;9.50;5.28;;;16.20;61.70;;;;;;5072235;28;20085;-52
2022/04/19 11:30:56;;;;;;;11.20;5.80;;;16.20;60.20;;;;;;5072757;28;20020;-46
2022/04/19 11:33:28;;;;;;;8.57;5.35;;;16.00;60.10;;;;;;5073033;28;20052;-45
2022/04/19 11:35:59;;;;;;;10.00;5.40;;;16.00;60.60;;;;;;5073714;28;20132;-49
2022/04/19 11:38:24;;;;;;;12.45;6.00;;;16.10;61.10;;;;;;5074028;28;20024;-47
2022/04/19 11:49:05;;;;;;;8.93;5.07;;;16.40;57.50;;;;;;5073720;28;20075;-49
2022/04/19 11:51:35;;;;;;;9.20;4.32;;;16.40;58.10;;;;;;5073672;28;20024;-41
2022/04/19 11:54:04;;;;;;;10.10;5.00;;;16.30;58.60;;;;;;5073733;28;20024;-46
2022/04/19 11:56:30;;;;;;;11.60;4.78;;;16.20;59.10;;;;;;5072129;28;20036;-45
2022/04/19 11:59:00;;;;;;;8.95;4.30;;;16.20;59.70;;;;;;5073428;28;20036;-50
2022/04/19 12:01:28;;;;;;;9.30;4.82;;;16.00;59.20;;;;;;5073418;28;20023;-49
2022/04/19 12:03:54;;;;;;;7.88;4.88;;;15.80;58.50;;;;;;5073396;28;20024;-50
2022/04/19 12:06:22;;;;;;;8.07;5.00;;;15.70;58.90;;;;;;5072324;28;20021;-46
2022/04/19 12:08:50;;;;;;;10.57;4.60;;;15.60;58.50;;;;;;5072769;28;20498;-42
2022/04/19 12:11:30;;;;;;;10.30;5.40;;;15.70;60.20;;;;;;5072783;28;20052;-48
2022/04/19 12:13:57;;;;;;;8.98;5.40;;;15.90;59.00;;;;;;5073142;28;20028;-47
2022/04/19 12:16:29;;;;;;;9.13;5.20;;;15.90;58.70;;;;;;5072682;28;20040;-47
2022/04/19 12:18:56;;;;;;;10.15;4.82;;;16.00;58.10;;;;;;5071753;28;20028;-48
2022/04/19 12:21:41;;;;;;;11.70;5.35;;;16.10;59.10;;;;;;5073109;28;20052;-45
2022/04/19 12:24:28;;;;;;;10.15;5.82;;;16.40;61.60;;;;;;5072941;28;20479;-43
2022/04/19 12:27:05;;;;;;;10.73;5.45;;;16.90;60.30;;;;;;5072860;28;20396;-44
2022/04/19 12:29:31;;;;;;;10.35;5.47;;;17.40;59.90;;;;;;5072738;28;20028;-46
2022/04/19 12:32:00;;;;;;;9.32;5.63;;;18.20;59.00;;;;;;5072752;28;20035;-46
2022/04/19 12:34:36;;;;;;;9.65;5.50;;;18.70;56.40;;;;;;5073028;28;20029;-50
2022/04/19 12:37:13;;;;;;;8.63;5.60;;;18.90;56.10;;;;;;5072635;28;20045;-45
2022/04/19 12:39:40;;;;;;;10.88;5.05;;;18.60;50.50;;;;;;5072741;28;20030;-53
2022/04/19 12:42:07;;;;;;;9.35;4.80;;;18.40;55.00;;;;;;5072697;28;20017;-55
2022/04/19 12:44:37;;;;;;;8.05;4.13;;;17.80;54.00;;;;;;5072678;28;20194;-46
2022/04/19 12:47:17;;;;;;;6.57;4.22;;;17.20;56.40;;;;;;5072537;28;20027;-45
2022/04/19 12:49:44;;;;;;;8.13;3.90;;;16.60;58.40;;;;;;5072297;28;20033;-51
2022/04/19 12:52:11;;;;;;;8.52;3.90;;;16.20;60.40;;;;;;5072587;28;20052;-48
2022/04/19 12:54:46;;;;;;;8.95;3.55;;;15.70;60.00;;;;;;5072467;28;20047;-53
2022/04/19 12:57:23;;;;;;;7.20;3.25;;;15.30;60.90;;;;;;5071332;28;20043;-45
2022/04/19 12:59:50;;;;;;;6.88;3.15;;;15.00;61.10;;;;;;5072274;28;20492;-44
2022/04/19 13:02:18;;;;;;;5.97;3.33;;;14.70;63.90;;;;;;5072142;28;20029;-46
2022/04/19 13:04:47;;;;;;;6.65;3.45;;;14.60;67.00;;;;;;5071985;28;20074;-48
2022/04/19 13:12:43;;;;;;;8.40;3.50;;;14.00;73.50;;;;;;5071987;28;20489;-49
2022/04/19 13:15:09;;;;;;;7.13;3.28;;;14.00;75.00;;;;;;5071824;28;20032;-45
2022/04/19 13:17:38;;;;;;;7.57;3.60;;;14.00;75.80;;;;;;5071870;28;20040;-45
2022/04/19 13:20:06;;;;;;;6.28;3.28;;;14.10;75.30;;;;;;5071752;28;20414;-43
2022/04/19 13:22:32;;;;;;;11.63;3.78;;;14.10;75.50;;;;;;5071805;28;20414;-43
2022/04/19 13:24:58;;;;;;;6.03;3.60;;;14.30;77.50;;;;;;5070471;28;20555;-51
2022/04/19 13:27:26;;;;;;;7.45;4.13;;;14.60;75.80;;;;;;5071915;28;20111;-49
2022/04/19 13:29:52;;;;;;;7.68;3.67;;;14.80;75.30;;;;;;5071709;28;20029;-50
2022/04/19 13:32:21;;;;;;;6.88;3.65;;;15.30;74.90;;;;;;5071053;28;20101;-47
2022/04/19 13:34:47;;;;;;;8.95;3.67;;;15.80;75.50;;;;;;5071317;28;20031;-53